Shenzhen, Guangdong

7:22 PM CST on March 30, 2015 (GMT +0800)
xili | | Change Station
CLOSE
Current Station
Personal Weather Station
Location: Chenzhen, %U5E7F%U4E1C%U7701
Elevation: -7 ft
Nearby Weather Stations

Elev -7 ft 22.54 °N, 114.06 °E | Updated 5 seconds ago

Clear
Clear
77.5 °F
Feels Like 79 °F
N
1.3
Wind Variable Wind from SE
Gusts 2.5 mph

Today
High -- | Low -- °F
--% Chance of Precip.
Yesterday
High -- | Low -- °F
Precip. -- in
6:18 AM 6:37 PM
Waxing Gibbous, 79% visible
Pressure 29.92 in
Visibility -9999.0 miles
Clouds
Heat Index 79 °F
Dew Point 70 °F
Humidity 77%
Rainfall 0.00 in
Snow Depth Not available.
UV 0.0 out of 12
Pollen Not available.
Air Quality Not available.
Flu Activity Not available.
METAR ZGSZ 301100Z 16006MPS CAVOK 24/21 Q1013 NOSIG

More Conditions Fewer Conditions

Pressure 29.92 in
Visibility -9999.0 miles
Clouds
Heat Index 79 °F
Dew Point 70 °F
Humidity 77%
Rainfall 0.00 in
Snow Depth Not available.
UV 0.0 out of 12
Pollen Not available.
Air Quality Not available.
Flu Activity Not available.
METAR ZGSZ 301100Z 16006MPS CAVOK 24/21 Q1013 NOSIG

More Conditions Fewer Conditions

10-Day Weather Forecast

Almanac

Astronomy

Mar. 30, 2015 Rise Set
Actual Time
Civil Twilight
Nautical Twilight
Astronomical Twilight
Moon
Length of Visible Light
Length of Day
Tomorrow will be .
, % of the Moon is Illuminated

Today's Extremes

Country Highs Country Lows

Community

WunderPhotos

Upload Photos

1,809,457 photos uploaded!

WunderBlogs® & News

Nearby

Air Quality

  Air Quality AQ Index Pollutant
Not available.

Snow Depth

Station Depth Elevation

Earthquake Activity

City Distance Mag. Time & Date
Minimum magnitude displayed is 2.5.

Coastal Water Temperatures

Place Temperature

Stations

Nearby Weather Stations

Station Location Temp. Windchill Dew Point Humidity Wind Precip. Elev Updated Type